Terminal Aerodrome Forecast
Issued by NWS Sterling, VA

Current Version | Previous Version | Graphics & Text | Print | Product List | Glossary On
Versions: 1 2 3 4 5 6 7 8 9 10 11 12 13 14 15
000
FTUS41 KLWX 190520
TAFMRB
TAF
KMRB 190520Z 1906/2006 26005KT P6SM FEW200
     FM190900 VRB04KT 6SM BR FEW200
     FM191200 29007KT P6SM SCT200
     FM191800 26007KT P6SM SCT050 SCT200
     FM192200 VRB04KT P6SM BKN050
     FM200500 VRB04KT P6SM SCT050=

USA.gov is the U.S. government's official web portal to all federal, state and local government web resources and services.